createdAt,value
2018-11-13T00:00:28.572Z,48.27
2018-11-13T00:02:57.048Z,43.37
2018-11-13T00:05:25.530Z,43.97
2018-11-13T00:07:53.716Z,43.77
2018-11-13T00:10:21.928Z,48.07
2018-11-13T00:12:50.059Z,45.40
2018-11-13T00:15:18.278Z,43.23
2018-11-13T00:17:46.687Z,51.40
2018-11-13T00:20:16.110Z,49.30
2018-11-13T00:22:44.708Z,51.77
2018-11-13T00:25:14.008Z,50.40
2018-11-13T00:27:42.739Z,54.43
2018-11-13T00:30:13.432Z,46.33
2018-11-13T00:32:42.087Z,49.67
2018-11-13T00:35:10.428Z,44.50
2018-11-13T00:37:38.594Z,46.60
2018-11-13T00:40:07.223Z,47.67
2018-11-13T00:42:35.344Z,53.70
2018-11-13T00:45:03.473Z,44.67
2018-11-13T00:47:31.611Z,49.27
2018-11-13T00:49:59.774Z,55.27
2018-11-13T00:52:27.892Z,47.50
2018-11-13T00:54:56.056Z,53.37
2018-11-13T00:57:24.401Z,50.07
2018-11-13T00:59:52.824Z,50.57
2018-11-13T01:02:21.035Z,49.33
2018-11-13T01:04:49.171Z,52.63
2018-11-13T01:07:17.445Z,57.67
2018-11-13T01:09:46.091Z,59.87
2018-11-13T01:12:14.222Z,53.90
2018-11-13T01:14:42.446Z,50.03
2018-11-13T01:17:10.849Z,56.17
2018-11-13T01:19:38.989Z,61.73
2018-11-13T01:22:07.615Z,52.10
2018-11-13T01:24:35.727Z,54.30
2018-11-13T01:27:03.832Z,51.80
2018-11-13T01:29:32.233Z,51.03
2018-11-13T01:32:00.508Z,55.53
2018-11-13T01:34:28.659Z,52.33
2018-11-13T01:36:56.842Z,53.73
2018-11-13T01:39:24.944Z,57.60
2018-11-13T01:41:53.031Z,52.70
2018-11-13T01:44:21.188Z,58.83
2018-11-13T01:46:49.319Z,57.23
2018-11-13T01:49:17.448Z,55.70
2018-11-13T01:51:45.564Z,51.00
2018-11-13T01:54:13.738Z,59.43
2018-11-13T01:56:41.795Z,56.20
2018-11-13T01:59:09.935Z,56.90
2018-11-13T02:01:38.031Z,50.40
2018-11-13T02:04:06.416Z,46.37
2018-11-13T02:06:34.560Z,57.30
2018-11-13T02:09:02.692Z,54.77
2018-11-13T02:11:30.780Z,53.90
2018-11-13T02:13:58.909Z,57.50
2018-11-13T02:16:27.015Z,54.83
2018-11-13T02:18:55.143Z,54.77
2018-11-13T02:21:23.235Z,51.13
2018-11-13T02:23:51.363Z,50.27
2018-11-13T02:26:19.457Z,49.40
2018-11-13T02:28:47.564Z,54.00
2018-11-13T02:31:15.660Z,53.33
2018-11-13T02:33:43.776Z,52.33
2018-11-13T02:36:11.883Z,55.37
2018-11-13T02:38:40.011Z,59.53
2018-11-13T02:41:08.126Z,50.00
2018-11-13T02:43:36.263Z,54.23
2018-11-13T02:46:04.387Z,50.20
2018-11-13T02:48:32.673Z,54.67
2018-11-13T02:51:00.818Z,50.10
2018-11-13T02:53:28.912Z,54.43
2018-11-13T02:55:57.040Z,50.57
2018-11-13T02:58:25.141Z,56.23
2018-11-13T03:00:53.256Z,49.47
2018-11-13T03:03:21.360Z,51.30
2018-11-13T03:05:49.536Z,47.10
2018-11-13T03:08:17.638Z,54.00
2018-11-13T03:10:45.766Z,49.03
2018-11-13T03:13:13.856Z,52.60
2018-11-13T03:15:41.978Z,52.07
2018-11-13T03:18:10.084Z,53.30
2018-11-13T03:20:38.204Z,51.07
2018-11-13T03:23:06.324Z,53.70
2018-11-13T03:25:34.477Z,53.13
2018-11-13T03:28:02.719Z,47.63
2018-11-13T03:30:30.864Z,47.47
2018-11-13T03:32:58.971Z,49.50
2018-11-13T03:35:27.103Z,53.03
2018-11-13T03:37:55.215Z,50.97
2018-11-13T03:40:23.378Z,51.30
2018-11-13T03:42:51.675Z,48.73
2018-11-13T03:45:19.985Z,52.60
2018-11-13T03:47:48.080Z,45.33
2018-11-13T03:50:17.220Z,49.63
2018-11-13T03:52:45.795Z,48.97
2018-11-13T03:55:14.323Z,48.87
2018-11-13T03:57:43.190Z,48.47
2018-11-13T04:00:13.357Z,42.80
2018-11-13T04:02:41.783Z,56.53
2018-11-13T04:05:11.517Z,46.03
2018-11-13T04:07:40.519Z,50.50
2018-11-13T04:10:09.709Z,43.50
2018-11-13T04:12:37.950Z,49.53
2018-11-13T04:15:06.608Z,50.53
2018-11-13T04:17:34.736Z,43.83
2018-11-13T04:20:02.828Z,46.83
2018-11-13T04:22:30.971Z,50.90
2018-11-13T04:24:59.071Z,43.10
2018-11-13T04:27:27.195Z,41.47
2018-11-13T04:29:55.315Z,44.10
2018-11-13T04:32:23.470Z,46.03
2018-11-13T04:34:51.584Z,47.07
2018-11-13T04:37:19.732Z,48.40
2018-11-13T04:39:47.888Z,47.53
2018-11-13T04:42:16.026Z,47.50
2018-11-13T04:44:44.148Z,45.00
2018-11-13T04:47:12.283Z,41.50
2018-11-13T04:49:40.408Z,42.43
2018-11-13T04:52:08.582Z,50.47
2018-11-13T04:54:36.703Z,45.53
2018-11-13T04:57:05.231Z,44.70
2018-11-13T04:59:33.360Z,51.23
2018-11-13T05:02:01.679Z,42.87
2018-11-13T05:04:29.814Z,45.73
2018-11-13T05:06:58.312Z,48.50
2018-11-13T05:09:26.420Z,47.00
2018-11-13T05:11:54.551Z,48.83
2018-11-13T05:14:22.649Z,47.10
2018-11-13T05:16:50.758Z,46.47
2018-11-13T05:19:18.868Z,45.17
2018-11-13T05:21:47.079Z,47.90
2018-11-13T05:24:15.175Z,42.47
2018-11-13T05:26:43.288Z,43.83
2018-11-13T05:29:11.385Z,50.10
2018-11-13T05:31:39.520Z,44.87
2018-11-13T05:34:08.052Z,47.23
2018-11-13T05:36:36.201Z,46.77
2018-11-13T05:39:06.338Z,43.57
2018-11-13T05:41:34.461Z,44.70
2018-11-13T05:44:02.572Z,51.73
2018-11-13T05:46:30.730Z,46.90
2018-11-13T05:48:58.824Z,41.10
2018-11-13T05:51:26.975Z,42.73
2018-11-13T05:53:55.103Z,52.33
2018-11-13T05:56:23.238Z,45.50
2018-11-13T05:58:51.395Z,42.90
2018-11-13T06:01:19.504Z,41.80
2018-11-13T06:03:47.652Z,41.20
2018-11-13T06:06:15.780Z,38.83
2018-11-13T06:08:43.967Z,38.30
2018-11-13T06:11:12.012Z,38.50
2018-11-13T06:13:40.143Z,38.60
2018-11-13T06:16:08.247Z,39.60
2018-11-13T06:18:36.370Z,38.00
2018-11-13T06:21:04.495Z,37.60
2018-11-13T06:23:32.612Z,37.83
2018-11-13T06:26:00.703Z,37.10
2018-11-13T06:28:28.819Z,33.87
2018-11-13T06:30:56.895Z,37.10
2018-11-13T06:33:25.016Z,34.20
2018-11-13T06:35:53.110Z,39.83
2018-11-13T06:38:21.264Z,36.87
2018-11-13T06:40:49.356Z,41.97
2018-11-13T06:43:17.516Z,39.37
2018-11-13T06:45:45.634Z,43.23
2018-11-13T06:48:13.765Z,40.60
2018-11-13T06:50:41.883Z,43.33
2018-11-13T06:53:10.035Z,39.37
2018-11-13T06:55:39.863Z,38.60
2018-11-13T06:58:07.996Z,42.87
2018-11-13T07:00:36.076Z,39.87
2018-11-13T07:03:04.204Z,41.90
2018-11-13T07:05:32.412Z,42.13
2018-11-13T07:08:00.556Z,38.73
2018-11-13T07:10:29.507Z,36.20
2018-11-13T07:12:58.003Z,40.00
2018-11-13T07:15:27.392Z,36.80
2018-11-13T07:17:57.094Z,41.53
2018-11-13T07:20:26.275Z,39.77
2018-11-13T07:22:54.403Z,42.33
2018-11-13T07:25:22.732Z,39.50
2018-11-13T07:27:51.060Z,42.20
2018-11-13T07:30:20.200Z,38.50
2018-11-13T07:32:48.324Z,39.57
2018-11-13T07:35:17.456Z,40.97
2018-11-13T07:37:49.194Z,37.53
2018-11-13T07:40:17.400Z,40.10
2018-11-13T07:42:46.528Z,35.93
2018-11-13T07:45:15.160Z,37.00
2018-11-13T07:47:44.504Z,39.47
2018-11-13T07:50:13.219Z,38.80
2018-11-13T07:52:41.344Z,40.20
2018-11-13T07:55:10.453Z,37.60
2018-11-13T07:57:38.703Z,33.80
2018-11-13T08:00:10.397Z,39.90
2018-11-13T08:02:38.537Z,41.10
2018-11-13T08:05:07.028Z,34.70
2018-11-13T08:07:35.135Z,34.80
2018-11-13T08:10:03.305Z,39.20
2018-11-13T08:12:31.460Z,32.70
2018-11-13T08:14:59.600Z,34.80
2018-11-13T08:17:27.708Z,33.33
2018-11-13T08:19:55.855Z,39.00
2018-11-13T08:22:24.150Z,33.07
2018-11-13T08:24:53.472Z,39.93
2018-11-13T08:27:21.592Z,35.20
2018-11-13T08:29:49.726Z,31.67
2018-11-13T08:32:17.837Z,34.50
2018-11-13T08:34:46.010Z,36.10
2018-11-13T08:37:14.084Z,31.67
2018-11-13T08:39:42.212Z,31.10
2018-11-13T08:42:10.331Z,28.07
2018-11-13T08:44:38.484Z,25.93
2018-11-13T08:47:06.590Z,32.07
2018-11-13T08:49:34.747Z,29.97
2018-11-13T08:52:02.924Z,34.93
2018-11-13T08:54:31.051Z,30.63
2018-11-13T08:56:59.163Z,30.63
2018-11-13T08:59:27.364Z,29.33
2018-11-13T09:01:55.436Z,31.40
2018-11-13T09:04:23.565Z,28.23
2018-11-13T09:06:51.717Z,27.40
2018-11-13T09:09:19.896Z,30.63
2018-11-13T09:11:48.129Z,29.73
2018-11-13T09:14:16.198Z,28.83
2018-11-13T09:16:44.329Z,31.23
2018-11-13T09:19:12.535Z,24.87
2018-11-13T09:21:40.626Z,25.47
2018-11-13T09:24:08.719Z,27.93
2018-11-13T09:26:36.956Z,27.67
2018-11-13T09:29:05.140Z,25.87
2018-11-13T09:31:33.297Z,32.23
2018-11-13T09:34:01.411Z,24.17
2018-11-13T09:36:29.598Z,33.83
2018-11-13T09:38:57.727Z,29.50
2018-11-13T09:41:26.048Z,27.40
2018-11-13T09:43:54.196Z,24.13
2018-11-13T09:46:22.405Z,26.53
2018-11-13T09:48:50.552Z,27.30
2018-11-13T09:51:18.803Z,26.17
2018-11-13T09:53:47.108Z,20.30
2018-11-13T09:56:15.140Z,22.77
2018-11-13T09:58:43.286Z,26.00
2018-11-13T10:01:11.525Z,20.23
2018-11-13T10:03:40.116Z,22.20
2018-11-13T10:06:07.636Z,21.03
2018-11-13T10:08:35.789Z,23.00
2018-11-13T10:11:04.078Z,22.13
2018-11-13T10:13:32.209Z,20.07
2018-11-13T10:16:00.348Z,24.50
2018-11-13T10:18:28.505Z,22.53
2018-11-13T10:20:56.592Z,19.30
2018-11-13T10:23:24.691Z,21.80
2018-11-13T10:25:52.947Z,26.70
2018-11-13T10:28:21.144Z,19.67
2018-11-13T10:30:49.347Z,37.83
2018-11-13T10:33:17.468Z,24.63
2018-11-13T10:35:45.594Z,21.60
2018-11-13T10:38:13.782Z,24.07
2018-11-13T10:40:42.089Z,21.97
2018-11-13T10:43:10.160Z,24.83
2018-11-13T10:45:38.320Z,25.90
2018-11-13T10:48:06.420Z,33.30
2018-11-13T10:50:34.586Z,30.77
2018-11-13T10:53:02.745Z,22.50
2018-11-13T10:55:30.891Z,23.43
2018-11-13T10:57:59.037Z,19.53
2018-11-13T11:00:32.427Z,26.07
2018-11-13T11:03:06.223Z,20.47
2018-11-13T11:05:34.279Z,19.07
2018-11-13T11:08:02.401Z,25.00
2018-11-13T11:10:30.547Z,21.30
2018-11-13T11:12:59.134Z,21.17
2018-11-13T11:15:27.187Z,25.63
2018-11-13T11:17:55.306Z,20.80
2018-11-13T11:20:23.432Z,22.00
2018-11-13T11:22:51.656Z,25.50
2018-11-13T11:25:19.775Z,18.33
2018-11-13T11:27:47.780Z,23.83
2018-11-13T11:30:16.488Z,29.53
2018-11-13T11:32:44.603Z,20.10
2018-11-13T11:35:12.918Z,20.70
2018-11-13T11:37:41.418Z,20.03
2018-11-13T11:40:10.029Z,19.50
2018-11-13T11:42:38.348Z,17.47
2018-11-13T11:45:08.224Z,21.83
2018-11-13T11:47:36.436Z,17.07
2018-11-13T11:50:05.269Z,26.63
2018-11-13T11:52:33.415Z,19.87
2018-11-13T11:55:01.576Z,19.10
2018-11-13T11:57:29.707Z,19.93
2018-11-13T11:59:57.796Z,18.90
2018-11-13T12:02:25.956Z,20.60
2018-11-13T12:04:54.052Z,19.93
2018-11-13T12:07:22.199Z,21.17
2018-11-13T12:09:50.412Z,22.47
2018-11-13T12:12:18.551Z,15.53
2018-11-13T12:14:46.598Z,17.30
2018-11-13T12:17:14.744Z,13.87
2018-11-13T12:19:42.839Z,18.27
2018-11-13T12:22:10.987Z,18.73
2018-11-13T12:24:39.059Z,22.97
2018-11-13T12:27:07.184Z,17.60
2018-11-13T12:29:35.288Z,14.43
2018-11-13T12:32:03.602Z,16.83
2018-11-13T12:34:31.807Z,13.30
2018-11-13T12:36:59.908Z,20.83
2018-11-13T12:42:02.427Z,14.77
2018-11-13T12:44:30.520Z,15.83
2018-11-13T12:46:58.701Z,16.20
2018-11-13T12:49:26.776Z,13.43
2018-11-13T12:52:16.599Z,10.20
2018-11-13T12:54:45.301Z,8.30
2018-11-13T12:57:13.463Z,8.40
2018-11-13T12:59:41.601Z,11.90
2018-11-13T13:02:10.795Z,8.90
2018-11-13T13:04:38.885Z,11.40
2018-11-13T13:07:07.455Z,10.83
2018-11-13T13:09:37.003Z,8.40
2018-11-13T13:12:06.119Z,9.53
2018-11-13T13:14:34.403Z,14.93
2018-11-13T13:17:02.540Z,11.67
2018-11-13T13:19:30.637Z,10.43
2018-11-13T13:21:58.773Z,8.30
2018-11-13T13:24:26.880Z,8.00
2018-11-13T13:26:54.964Z,10.13
2018-11-13T13:29:23.069Z,6.60
2018-11-13T13:31:51.195Z,10.80
2018-11-13T13:34:19.288Z,8.70
2018-11-13T13:36:47.417Z,5.43
2018-11-13T13:39:15.528Z,9.87
2018-11-13T13:41:43.692Z,8.33
2018-11-13T13:44:11.792Z,5.90
2018-11-13T13:46:39.998Z,7.00
2018-11-13T13:49:08.024Z,8.73
2018-11-13T13:51:36.132Z,4.10
2018-11-13T13:54:04.412Z,6.33
2018-11-13T13:56:32.374Z,4.23
2018-11-13T13:59:00.475Z,10.00
2018-11-13T14:01:28.571Z,8.93
2018-11-13T14:03:56.670Z,6.30
2018-11-13T14:06:24.768Z,4.90
2018-11-13T14:08:52.880Z,4.70
2018-11-13T14:11:21.010Z,9.47
2018-11-13T14:13:49.140Z,5.37
2018-11-13T14:16:17.259Z,7.97
2018-11-13T14:18:45.443Z,6.57
2018-11-13T14:21:13.548Z,6.93
2018-11-13T14:23:41.701Z,9.90
2018-11-13T14:26:10.651Z,8.90
2018-11-13T14:28:38.767Z,8.93
2018-11-13T14:31:06.944Z,8.10
2018-11-13T14:33:35.096Z,6.47
2018-11-13T14:36:03.198Z,4.53
2018-11-13T14:38:31.293Z,9.27
2018-11-13T14:40:59.404Z,6.47
2018-11-13T14:43:27.520Z,4.47
2018-11-13T14:45:55.632Z,4.80
2018-11-13T14:48:23.756Z,8.80
2018-11-13T14:50:51.840Z,5.77
2018-11-13T14:53:20.044Z,10.00
2018-11-13T14:55:48.088Z,4.63
2018-11-13T14:58:17.017Z,9.43
2018-11-13T15:00:45.153Z,12.43
2018-11-13T15:03:14.684Z,10.67
2018-11-13T15:05:42.820Z,10.03
2018-11-13T15:08:11.311Z,7.07
2018-11-13T15:10:46.301Z,9.17
2018-11-13T15:13:14.761Z,7.40
2018-11-13T15:15:42.884Z,9.50
2018-11-13T15:18:11.323Z,6.40
2018-11-13T15:20:39.577Z,9.63
2018-11-13T15:23:08.465Z,7.03
2018-11-13T15:25:36.647Z,6.90
2018-11-13T15:28:05.272Z,7.77
2018-11-13T15:30:34.536Z,8.93
2018-11-13T15:33:04.177Z,6.10
2018-11-13T15:35:32.300Z,4.40
2018-11-13T15:38:00.420Z,9.00
2018-11-13T15:40:29.644Z,5.43
2018-11-13T15:42:57.777Z,5.83
2018-11-13T15:45:25.903Z,7.87
2018-11-13T15:47:55.013Z,6.83
2018-11-13T15:50:25.371Z,5.70
2018-11-13T15:52:53.511Z,4.80
2018-11-13T15:55:21.652Z,4.30
2018-11-13T15:57:50.079Z,13.30
2018-11-13T16:00:23.661Z,7.37
2018-11-13T16:02:52.107Z,5.90
2018-11-13T16:05:26.717Z,6.33
2018-11-13T16:07:55.971Z,6.27
2018-11-13T16:10:24.158Z,7.63
2018-11-13T16:12:52.293Z,4.27
2018-11-13T16:15:21.472Z,12.07
2018-11-13T16:17:50.197Z,8.37
2018-11-13T16:20:18.436Z,10.57
2018-11-13T16:22:46.615Z,8.43
2018-11-13T16:25:14.776Z,9.13
2018-11-13T16:27:42.862Z,6.30
2018-11-13T16:30:13.199Z,10.33
2018-11-13T16:32:41.716Z,9.77
2018-11-13T16:35:11.096Z,6.90
2018-11-13T16:37:40.420Z,13.73
2018-11-13T16:40:09.804Z,7.50
2018-11-13T16:42:38.505Z,5.87
2018-11-13T16:45:07.407Z,7.20
2018-11-13T16:47:35.543Z,8.93
2018-11-13T16:50:04.143Z,6.87
2018-11-13T16:52:32.271Z,9.10
2018-11-13T16:55:00.500Z,8.10
2018-11-13T16:57:28.657Z,10.63
2018-11-13T16:59:56.836Z,10.17
2018-11-13T17:02:25.012Z,12.27
2018-11-13T17:04:53.084Z,6.00
2018-11-13T17:07:21.350Z,12.13
2018-11-13T17:09:49.514Z,11.73
2018-11-13T17:12:17.612Z,12.10
2018-11-13T17:14:45.737Z,7.30
2018-11-13T17:17:13.828Z,8.97
2018-11-13T17:19:41.993Z,8.10
2018-11-13T17:22:10.053Z,6.47
2018-11-13T17:24:38.179Z,7.07
2018-11-13T17:27:06.308Z,8.90
2018-11-13T17:29:34.423Z,7.47
2018-11-13T17:32:02.571Z,9.30
2018-11-13T17:34:30.664Z,8.10
2018-11-13T17:36:58.806Z,9.80
2018-11-13T17:39:26.900Z,5.77
2018-11-13T17:41:55.014Z,5.73
2018-11-13T17:44:23.160Z,8.77
2018-11-13T17:46:51.295Z,8.53
2018-11-13T17:49:19.396Z,5.00
2018-11-13T17:51:47.535Z,8.40
2018-11-13T17:54:15.658Z,9.10
2018-11-13T17:56:43.796Z,8.67
2018-11-13T17:59:11.899Z,6.60
2018-11-13T18:01:40.044Z,4.27
2018-11-13T18:04:08.128Z,7.03
2018-11-13T18:06:36.352Z,4.00
2018-11-13T18:09:09.021Z,5.40
2018-11-13T18:11:37.266Z,3.77
2018-11-13T18:14:05.787Z,11.97
2018-11-13T18:16:33.844Z,5.57
2018-11-13T18:19:01.964Z,5.63
2018-11-13T18:21:30.142Z,6.77
2018-11-13T18:23:58.240Z,3.17
2018-11-13T18:26:26.496Z,5.00
2018-11-13T18:28:54.600Z,8.60
2018-11-13T18:31:23.084Z,4.63
2018-11-13T18:33:51.215Z,4.40
2018-11-13T18:36:19.374Z,7.33
2018-11-13T18:38:47.595Z,10.10
2018-11-13T18:41:15.663Z,6.47
2018-11-13T18:43:43.781Z,6.97
2018-11-13T18:46:12.032Z,7.00
2018-11-13T18:48:40.184Z,7.67
2018-11-13T18:51:08.528Z,5.63
2018-11-13T18:53:36.684Z,7.70
2018-11-13T18:56:04.824Z,4.20
2018-11-13T18:58:32.903Z,4.10
2018-11-13T19:01:01.032Z,4.43
2018-11-13T19:03:29.112Z,7.90
2018-11-13T19:05:57.317Z,4.60
2018-11-13T19:08:25.452Z,6.10
2018-11-13T19:10:53.723Z,4.87
2018-11-13T19:13:24.319Z,4.60
2018-11-13T19:15:54.159Z,5.57
2018-11-13T19:18:22.461Z,2.90
2018-11-13T19:20:50.656Z,3.70
2018-11-13T19:23:19.404Z,3.47
2018-11-13T19:25:47.476Z,3.33
2018-11-13T19:28:15.650Z,2.67
2018-11-13T19:30:43.778Z,14.67
2018-11-13T19:33:11.912Z,6.53
2018-11-13T19:35:40.241Z,4.70
2018-11-13T19:38:08.174Z,3.47
2018-11-13T19:40:36.480Z,7.23
2018-11-13T19:43:06.336Z,3.73
2018-11-13T19:45:34.449Z,8.37
2018-11-13T19:48:02.744Z,3.00
2018-11-13T19:50:33.018Z,7.90
2018-11-13T19:53:01.219Z,4.63
2018-11-13T19:55:29.924Z,5.43
2018-11-13T19:57:58.185Z,2.90
2018-11-13T20:00:28.415Z,5.47
2018-11-13T20:02:57.787Z,6.23
2018-11-13T20:05:26.551Z,3.47
2018-11-13T20:07:54.776Z,5.00
2018-11-13T20:10:24.176Z,2.70
2018-11-13T20:12:53.139Z,3.60
2018-11-13T20:15:22.127Z,4.37
2018-11-13T20:17:50.248Z,5.23
2018-11-13T20:20:19.843Z,5.77
2018-11-13T20:22:48.652Z,7.87
2018-11-13T20:25:17.986Z,4.00
2018-11-13T20:27:46.132Z,4.37
2018-11-13T20:30:20.804Z,3.60
2018-11-13T20:32:48.915Z,3.23
2018-11-13T20:35:17.039Z,4.10
2018-11-13T20:37:46.286Z,3.50
2018-11-13T20:40:19.830Z,5.10
2018-11-13T20:42:49.339Z,2.43
2018-11-13T20:45:17.452Z,2.67
2018-11-13T20:47:45.586Z,3.03
2018-11-13T20:50:15.552Z,2.50
2018-11-13T20:52:43.726Z,5.80
2018-11-13T20:55:12.099Z,4.30
2018-11-13T20:57:40.275Z,4.77
2018-11-13T21:00:12.058Z,4.90
2018-11-13T21:02:40.182Z,3.30
2018-11-13T21:05:08.387Z,3.53
2018-11-13T21:07:36.981Z,2.70
2018-11-13T21:10:07.080Z,4.23
2018-11-13T21:12:35.245Z,4.80
2018-11-13T21:15:03.424Z,4.27
2018-11-13T21:17:31.668Z,2.80
2018-11-13T21:19:59.680Z,4.80
2018-11-13T21:22:27.779Z,5.00
2018-11-13T21:24:55.875Z,4.73
2018-11-13T21:27:24.028Z,2.70
2018-11-13T21:29:52.166Z,2.40
2018-11-13T21:32:20.271Z,3.67
2018-11-13T21:34:48.367Z,4.13
2018-11-13T21:37:16.564Z,3.63
2018-11-13T21:39:44.656Z,2.57
2018-11-13T21:42:12.740Z,4.50
2018-11-13T21:44:40.875Z,3.83
2018-11-13T21:47:08.984Z,3.10
2018-11-13T21:49:37.169Z,4.57
2018-11-13T21:52:05.450Z,3.53
2018-11-13T21:54:33.585Z,3.17
2018-11-13T21:57:01.680Z,4.90
2018-11-13T21:59:29.813Z,2.23
2018-11-13T22:01:57.899Z,3.30
2018-11-13T22:04:26.081Z,3.63
2018-11-13T22:06:54.172Z,2.73
2018-11-13T22:09:22.267Z,3.90
2018-11-13T22:11:50.535Z,2.53
2018-11-13T22:14:18.695Z,2.33
2018-11-13T22:16:46.905Z,3.50
2018-11-13T22:19:15.000Z,3.70
2018-11-13T22:21:43.087Z,2.90
2018-11-13T22:24:11.260Z,3.73
2018-11-13T22:26:39.415Z,2.93
2018-11-13T22:29:07.584Z,6.40
2018-11-13T22:31:35.640Z,4.50
2018-11-13T22:34:03.865Z,3.17
2018-11-13T22:36:32.216Z,4.10
2018-11-13T22:39:00.134Z,4.43
2018-11-13T22:41:28.164Z,2.83
2018-11-13T22:43:56.331Z,3.53
2018-11-13T22:46:24.448Z,3.17
2018-11-13T22:48:52.612Z,5.30
2018-11-13T22:51:20.697Z,2.53
2018-11-13T22:53:48.856Z,1.97
2018-11-13T22:56:16.995Z,3.03
2018-11-13T22:58:45.117Z,3.83
2018-11-13T23:01:13.305Z,2.23
2018-11-13T23:03:41.359Z,2.33
2018-11-13T23:06:09.440Z,2.83
2018-11-13T23:08:37.580Z,3.57
2018-11-13T23:11:11.264Z,3.37
2018-11-13T23:13:39.397Z,2.77
2018-11-13T23:16:07.545Z,2.57
2018-11-13T23:18:35.707Z,3.37
2018-11-13T23:21:03.828Z,6.10
2018-11-13T23:23:31.987Z,5.53
2018-11-13T23:26:00.166Z,3.70
2018-11-13T23:28:28.317Z,6.30
2018-11-13T23:30:56.416Z,2.50
2018-11-13T23:33:24.544Z,2.80
2018-11-13T23:35:52.638Z,2.30
2018-11-13T23:38:20.775Z,3.03
2018-11-13T23:40:48.924Z,2.90
2018-11-13T23:43:17.095Z,2.30
2018-11-13T23:45:45.238Z,2.10
2018-11-13T23:48:13.311Z,2.57
2018-11-13T23:50:41.452Z,2.80
2018-11-13T23:53:09.548Z,3.93
2018-11-13T23:55:37.778Z,2.00
2018-11-13T23:58:05.812Z,2.83
